Palmyra, Maine
Current Conditions -  °F | °C
As of 3:35 PM on Friday 28 Nov 2014 (Local Time) from KWVL Reporting Station
Scattered Clouds Scattered Clouds  
Wind Chill: 28°   Ceiling: Unl
Heat Index: 28°   Visibility: 10mi
Dew Point: 16°   Wind: 3mph
Humidity: 59%   Direction: 300°WNW
Pressure: 30"   Gusts: NA
Location:  44.85°N, 69.36°W
Report Text: KWVL 282035Z 30003KT 10SM FEW024 SCT031 SCT037 M02/M09 A3000 RMK AO1
Loading
Personal Weather Stations






























Interactive Weather Map New forecast layout! Learn more

10-Day Weather Forecast

Advertisements
Track Severe Weather on mobile